• Join FlightAware (Why Join?)
  • Login
  • US Flag 
07:53AM EDT


 

Airport Tracker/Info


-or-


 

Live Flight TrackerFlight Track Log ✈ JIA2342 ✈ 30-Jul-2013 ✈ KDCA - KALB

Flight Track Log - Related Links

Times and Time Zones

All times are in EDT time to prevent confusion due to time zone crossing. See the JIA2342 flight status page for this flight to view local times or setup timezone preferences in your user account.

Time Position Orientation Groundspeed Altitude Reporting Facility
EDT Latitude Longitude Course Direction KTS MPH feet Rate Location/Type
08:14PM 38.8667 -77.0500 90° East 167 192 1,100  Level Potomac TRACON
08:17PM 38.9782 -76.6602 57° Northeast  Level FlightAware Approximate
08:17PM 38.9767 -77.1189 334° Northwest 204 235 6,700  Level Washington Center
08:18PM 39.0271 -76.5355 67° East  Level FlightAware Approximate
08:18PM 38.9903 -77.0283 79° East 154 177 9,500  Level Washington Center
08:19PM 39.0764 -76.4106 61° Northeast  Level FlightAware Approximate
08:19PM 39.0103 -76.9325 75° East 206 237 11,600  Level Washington Center
08:20PM 39.1167 -76.2837 90° East  Level FlightAware Approximate
08:20PM 39.0300 -76.8394 75° East 244 281 13,900  Level Washington Center
08:21PM 39.0517 -76.7328 75° East 278 320 15,100 1,320 Climbing Washington Center
08:22PM 39.0758 -76.6131 75° East 313 360 16,600 1,320 Climbing Washington Center
08:23PM 39.0975 -76.4903 77° East 339 390 17,800 1,080 Climbing Washington Center
08:24PM 39.1236 -76.3622 75° East 355 409 18,800 600 Climbing Washington Center
08:25PM 39.1514 -76.2258 75° East 368 423 19,000 60 Climbing Washington Center
08:26PM 39.1728 -76.0922 78° East 399 459 19,000 120 Level Washington Center
08:27PM 39.2442 -75.9694 53° Northeast 411 473 19,300 600 Climbing Washington Center
08:28PM 39.3153 -75.8464 53° Northeast 411 473 20,300 960 Climbing Washington Center
08:29PM 39.3864 -75.7258 53° Northeast 421 484 21,300 840 Climbing Washington Center
08:30PM 39.4594 -75.6022 53° Northeast 421 484 22,000 300 Climbing Washington Center
08:31PM 39.5342 -75.4786 52° Northeast 426 490 22,000 300 Level Washington Center
08:32PM 39.6069 -75.3572 52° Northeast 431 496 22,700 1,080 Climbing Washington Center
08:33PM 39.6839 -75.2411 49° Northeast 431 496 24,200 1,080 Climbing Washington Center
08:34PM 39.7689 -75.1164 48° Northeast 424 488 25,000 540 Climbing Washington Center
08:35PM 39.9203 -74.9011 47° Northeast 421 484 25,800 660 Climbing New York Center
08:36PM 40.0014 -74.7867 47° Northeast 426 490 27,000 600 Climbing New York Center
08:37PM 40.0739 -74.6797 48° Northeast 426 490 27,000  Level New York Center
08:38PM 40.1736 -74.5631 42° Northeast 426 490 27,000  Level New York Center
08:39PM 40.2728 -74.4544 40° Northeast 438 504 27,000  Level New York Center
08:40PM 40.3678 -74.3450 41° Northeast 447 514 27,000 -240 Level New York Center
08:43PM 40.5517 -74.1336 41° Northeast 441 507 26,300 -600 Descending Boston Center
08:43PM 40.6556 -74.0186 40° Northeast 441 507 25,200 -1,080 Descending Boston Center
08:44PM 40.7506 -73.9139 40° Northeast 441 507 24,200 -600 Descending Boston Center
08:45PM 40.8456 -73.8147 38° Northeast 436 502 24,000 -540 Descending Boston Center
08:47PM 40.9486 -73.7344 30° Northeast 436 502 23,200 -540 Descending Boston Center
08:47PM 41.0600 -73.6594 27° Northeast 436 502 23,000 -420 Descending Boston Center
08:48PM 41.1669 -73.5872 27° Northeast 436 502 22,400 -1,320 Descending Boston Center
08:50PM 41.2775 -73.5947 357° North 399 459 20,400 -1,920 Descending Boston Center
08:50PM 41.3794 -73.6075 355° North 399 459 18,600 -1,320 Descending Boston Center
08:51PM 41.4981 -73.6264 353° North 400 460 17,900 -1,140 Descending Boston Center
08:52PM 41.5936 -73.6392 354° North 371 427 16,400 -1,740 Descending Boston Center
08:54PM 41.6875 -73.6522 354° North 345 397 14,500 -2,100 Descending Boston Center
08:54PM 41.7811 -73.6650 354° North 334 384 12,300 -1,740 Descending Boston Center
08:56PM 41.8747 -73.6781 354° North 334 384 11,100 -660 Descending Boston Center
08:57PM 41.9619 -73.6908 354° North 328 377 11,000 -60 Descending Boston Center
08:57PM 42.0453 -73.7036 354° North 305 351 11,000  Level Boston Center
08:58PM 42.1161 -73.7136 354° North 288 331 11,000  Level Boston Center
08:59PM 42.1950 -73.7264 353° North 285 328 11,000 -720 Level Boston Center
09:01PM 42.2847 -73.7367 355° North 286 329 9,500 -1,740 Descending Boston Center
09:02PM 42.3594 -73.7467 354° North 281 323 7,400 -1,980 Descending Boston Center
09:03PM 42.4364 -73.7594 353° North 264 304 5,500 -1,980 Descending Boston Center
09:03PM 42.5053 -73.7667 356° North 266 306 3,600 -1,740 Descending Boston Center
09:05PM 42.5739 -73.7764 354° North 256 295 2,100 -840 Descending Boston Center
09:06PM 42.6239 -73.7861 352° North 251 289 2,000 -360 Descending Boston Center
09:07PM 42.6714 -73.8039 345° North 119 137 1,400 -540 Descending Boston Center
09:08PM 42.7089 -73.8075 356° North 130 150 900 -540 Descending Boston Center
09:12PM 42.7491 -73.8020 354° North  Level Estimated
09:19PM 42.7491 -73.8020 171° South  Level Estimated